createdAt,value
2018-07-31T00:01:43.834Z,26.90
2018-07-31T00:04:12.195Z,26.90
2018-07-31T00:06:40.534Z,26.90
2018-07-31T00:09:08.875Z,26.90
2018-07-31T00:11:37.223Z,26.90
2018-07-31T00:14:05.502Z,26.80
2018-07-31T00:16:33.783Z,26.80
2018-07-31T00:19:02.223Z,26.80
2018-07-31T00:21:30.518Z,26.70
2018-07-31T00:23:58.817Z,26.70
2018-07-31T00:26:27.106Z,26.70
2018-07-31T00:28:55.442Z,26.60
2018-07-31T00:31:23.744Z,26.60
2018-07-31T00:33:52.294Z,26.60
2018-07-31T00:36:20.664Z,26.60
2018-07-31T00:38:49.002Z,26.50
2018-07-31T00:41:17.370Z,26.50
2018-07-31T00:43:45.704Z,26.50
2018-07-31T00:46:14.026Z,26.40
2018-07-31T00:48:48.155Z,26.50
2018-07-31T00:51:16.440Z,26.40
2018-07-31T00:53:44.705Z,26.40
2018-07-31T00:56:12.979Z,26.40
2018-07-31T00:58:41.258Z,26.30
2018-07-31T01:01:09.535Z,26.30
2018-07-31T01:03:37.781Z,26.30
2018-07-31T01:06:06.085Z,26.20
2018-07-31T01:08:34.370Z,26.20
2018-07-31T01:11:02.660Z,26.20
2018-07-31T01:13:30.917Z,26.20
2018-07-31T01:15:59.181Z,26.20
2018-07-31T01:18:27.437Z,26.10
2018-07-31T01:23:23.712Z,26.10
2018-07-31T01:25:52.000Z,26.00
2018-07-31T01:28:20.288Z,26.00
2018-07-31T01:30:48.574Z,26.00
2018-07-31T01:33:16.838Z,26.00
2018-07-31T01:35:45.261Z,25.90
2018-07-31T01:38:13.541Z,25.90
2018-07-31T01:40:41.853Z,25.90
2018-07-31T01:43:10.128Z,25.90
2018-07-31T01:45:38.401Z,25.80
2018-07-31T01:48:06.682Z,25.80
2018-07-31T01:50:34.952Z,25.80
2018-07-31T01:53:03.239Z,25.80
2018-07-31T01:55:31.496Z,25.70
2018-07-31T01:57:59.805Z,25.70
2018-07-31T02:00:28.121Z,25.70
2018-07-31T02:02:56.425Z,25.70
2018-07-31T02:05:24.719Z,25.60
2018-07-31T02:07:53.025Z,25.60
2018-07-31T02:10:21.318Z,25.60
2018-07-31T02:12:49.563Z,25.60
2018-07-31T02:15:17.840Z,25.60
2018-07-31T02:17:46.109Z,25.50
2018-07-31T02:20:14.390Z,25.50
2018-07-31T02:22:42.670Z,25.50
2018-07-31T02:25:10.944Z,25.50
2018-07-31T02:27:39.221Z,25.50
2018-07-31T02:30:08.325Z,25.40
2018-07-31T02:32:37.629Z,25.40
2018-07-31T02:35:05.895Z,25.40
2018-07-31T02:37:34.189Z,25.30
2018-07-31T02:40:02.515Z,25.30
2018-07-31T02:42:30.750Z,25.30
2018-07-31T02:44:59.015Z,25.30
2018-07-31T02:47:27.331Z,25.30
2018-07-31T02:49:55.578Z,25.20
2018-07-31T02:52:23.887Z,25.20
2018-07-31T02:54:52.207Z,25.20
2018-07-31T02:57:20.510Z,25.20
2018-07-31T02:59:48.848Z,25.20
2018-07-31T03:02:17.114Z,25.10
2018-07-31T03:04:45.439Z,25.10
2018-07-31T03:07:13.665Z,25.10
2018-07-31T03:12:09.985Z,25.00
2018-07-31T03:14:38.229Z,25.00
2018-07-31T03:17:06.511Z,25.00
2018-07-31T03:19:34.787Z,25.00
2018-07-31T03:22:03.038Z,24.90
2018-07-31T03:24:31.319Z,24.90
2018-07-31T03:26:59.592Z,24.90
2018-07-31T03:29:27.853Z,24.90
2018-07-31T03:31:56.695Z,24.90
2018-07-31T03:34:25.398Z,24.80
2018-07-31T03:36:53.637Z,24.80
2018-07-31T03:39:21.919Z,24.80
2018-07-31T03:41:50.193Z,24.80
2018-07-31T03:44:18.468Z,24.80
2018-07-31T03:46:46.742Z,24.70
2018-07-31T03:49:15.025Z,24.70
2018-07-31T03:51:43.765Z,24.70
2018-07-31T03:54:12.077Z,24.70
2018-07-31T03:56:40.382Z,24.70
2018-07-31T03:59:08.681Z,24.60
2018-07-31T04:01:37.025Z,24.60
2018-07-31T04:04:05.289Z,24.60
2018-07-31T04:06:33.563Z,24.60
2018-07-31T04:09:01.837Z,24.50
2018-07-31T04:11:30.112Z,24.50
2018-07-31T04:13:58.385Z,24.50
2018-07-31T04:16:26.638Z,24.50
2018-07-31T04:18:54.917Z,24.50
2018-07-31T04:21:23.177Z,24.50
2018-07-31T04:23:51.450Z,24.50
2018-07-31T04:26:19.742Z,24.40
2018-07-31T04:28:48.005Z,24.40
2018-07-31T04:31:16.270Z,24.40
2018-07-31T04:33:44.561Z,24.40
2018-07-31T04:36:12.885Z,24.40
2018-07-31T04:38:41.119Z,24.40
2018-07-31T04:41:09.700Z,24.40
2018-07-31T04:43:38.131Z,24.30
2018-07-31T04:46:06.524Z,24.30
2018-07-31T04:48:35.073Z,24.30
2018-07-31T04:51:03.401Z,24.30
2018-07-31T04:53:31.725Z,24.40
2018-07-31T04:56:00.194Z,24.40
2018-07-31T04:58:28.505Z,24.40
2018-07-31T05:00:56.957Z,24.40
2018-07-31T05:03:25.562Z,24.40
2018-07-31T05:05:53.904Z,24.40
2018-07-31T05:08:22.983Z,24.40
2018-07-31T05:10:51.232Z,24.40
2018-07-31T05:13:19.989Z,24.40
2018-07-31T05:15:48.302Z,24.40
2018-07-31T05:18:16.648Z,24.40
2018-07-31T05:20:44.896Z,24.40
2018-07-31T05:23:13.204Z,24.40
2018-07-31T05:25:41.487Z,24.50
2018-07-31T05:28:09.829Z,24.50
2018-07-31T05:30:38.189Z,24.50
2018-07-31T05:33:06.476Z,24.50
2018-07-31T05:35:34.761Z,24.50
2018-07-31T05:38:03.176Z,24.50
2018-07-31T05:40:31.429Z,24.60
2018-07-31T05:43:01.465Z,24.60
2018-07-31T05:45:29.820Z,24.60
2018-07-31T05:47:58.065Z,24.70
2018-07-31T05:50:26.427Z,24.60
2018-07-31T05:52:54.798Z,24.70
2018-07-31T05:55:23.077Z,24.70
2018-07-31T05:57:51.362Z,24.70
2018-07-31T06:00:19.649Z,24.70
2018-07-31T06:02:47.946Z,24.70
2018-07-31T06:05:16.241Z,24.70
2018-07-31T06:07:44.513Z,24.70
2018-07-31T06:10:12.801Z,24.80
2018-07-31T06:12:41.097Z,24.80
2018-07-31T06:15:09.467Z,24.80
2018-07-31T06:17:37.895Z,24.80
2018-07-31T06:20:15.286Z,24.70
2018-07-31T06:22:44.465Z,24.70
2018-07-31T06:25:13.195Z,24.70
2018-07-31T06:27:41.631Z,24.70
2018-07-31T06:30:11.681Z,24.70
2018-07-31T06:32:40.269Z,24.80
2018-07-31T06:35:08.637Z,24.70
2018-07-31T06:37:36.921Z,24.80
2018-07-31T06:40:05.540Z,24.80
2018-07-31T06:42:33.809Z,24.80
2018-07-31T06:45:02.061Z,24.80
2018-07-31T06:49:58.353Z,24.80
2018-07-31T06:52:26.677Z,24.90
2018-07-31T06:54:54.961Z,24.90
2018-07-31T06:57:23.237Z,24.90
2018-07-31T06:59:51.504Z,24.90
2018-07-31T07:02:19.790Z,25.00
2018-07-31T07:04:48.115Z,25.00
2018-07-31T07:07:16.419Z,25.00
2018-07-31T07:09:44.746Z,25.00
2018-07-31T07:12:13.030Z,25.10
2018-07-31T07:14:41.510Z,25.10
2018-07-31T07:17:10.522Z,25.10
2018-07-31T07:19:38.794Z,25.10
2018-07-31T07:22:07.258Z,25.10
2018-07-31T07:24:35.985Z,25.20
2018-07-31T07:27:04.286Z,25.20
2018-07-31T07:29:32.709Z,25.20
2018-07-31T07:32:01.008Z,25.30
2018-07-31T07:34:29.478Z,25.30
2018-07-31T07:36:57.761Z,25.30
2018-07-31T07:39:26.018Z,25.40
2018-07-31T07:41:54.641Z,25.40
2018-07-31T07:44:23.038Z,25.40
2018-07-31T07:46:51.378Z,25.50
2018-07-31T07:49:19.757Z,25.50
2018-07-31T07:51:48.072Z,25.50
2018-07-31T07:54:16.444Z,25.60
2018-07-31T07:56:44.660Z,25.60
2018-07-31T07:59:12.941Z,25.70
2018-07-31T08:01:41.298Z,25.70
2018-07-31T08:04:09.642Z,25.80
2018-07-31T08:06:38.069Z,25.80
2018-07-31T08:09:08.402Z,25.80
2018-07-31T08:11:36.949Z,25.80
2018-07-31T08:14:05.377Z,25.90
2018-07-31T08:16:33.853Z,25.90
2018-07-31T08:19:02.566Z,26.00
2018-07-31T08:21:31.057Z,26.10
2018-07-31T08:23:59.334Z,26.10
2018-07-31T08:26:27.807Z,26.10
2018-07-31T08:28:56.269Z,26.20
2018-07-31T08:31:24.603Z,26.30
2018-07-31T08:33:53.542Z,26.30
2018-07-31T08:36:21.806Z,26.40
2018-07-31T08:38:50.097Z,26.40
2018-07-31T08:41:18.508Z,26.50
2018-07-31T08:43:46.767Z,26.50
2018-07-31T08:46:15.258Z,26.60
2018-07-31T08:48:43.543Z,26.60
2018-07-31T08:51:12.020Z,26.60
2018-07-31T08:53:40.269Z,26.60
2018-07-31T08:56:08.746Z,26.80
2018-07-31T08:58:37.044Z,26.90
2018-07-31T09:01:05.541Z,27.00
2018-07-31T09:03:34.197Z,27.00
2018-07-31T09:06:02.481Z,27.00
2018-07-31T09:08:30.977Z,27.00
2018-07-31T09:10:59.046Z,27.20
2018-07-31T09:13:27.323Z,27.20
2018-07-31T09:18:23.634Z,27.30
2018-07-31T09:20:52.117Z,27.40
2018-07-31T09:23:20.793Z,27.50
2018-07-31T09:25:49.066Z,27.50
2018-07-31T09:28:18.477Z,27.50
2018-07-31T09:30:52.184Z,27.60
2018-07-31T09:33:20.410Z,27.80
2018-07-31T09:35:48.693Z,28.00
2018-07-31T09:38:16.993Z,27.90
2018-07-31T09:40:45.284Z,28.00
2018-07-31T09:43:13.593Z,28.00
2018-07-31T09:45:41.889Z,28.00
2018-07-31T09:48:10.165Z,28.10
2018-07-31T09:50:38.558Z,28.20
2018-07-31T09:53:07.198Z,28.20
2018-07-31T09:55:35.560Z,28.30
2018-07-31T09:58:03.863Z,28.30
2018-07-31T10:00:37.509Z,28.40
2018-07-31T10:03:06.030Z,28.40
2018-07-31T10:05:34.353Z,28.50
2018-07-31T10:08:02.645Z,28.60
2018-07-31T10:10:31.029Z,28.60
2018-07-31T10:12:59.412Z,28.70
2018-07-31T10:15:27.908Z,28.70
2018-07-31T10:17:56.280Z,28.80
2018-07-31T10:20:24.490Z,28.90
2018-07-31T10:22:52.970Z,29.00
2018-07-31T10:25:21.433Z,29.00
2018-07-31T10:27:49.730Z,29.10
2018-07-31T10:30:18.098Z,29.20
2018-07-31T10:32:46.470Z,29.30
2018-07-31T10:35:14.759Z,29.40
2018-07-31T10:37:43.168Z,29.40
2018-07-31T10:40:11.458Z,29.50
2018-07-31T10:42:39.721Z,29.50
2018-07-31T10:45:08.027Z,29.60
2018-07-31T10:47:36.358Z,29.60
2018-07-31T10:50:04.898Z,29.70
2018-07-31T10:52:33.400Z,29.80
2018-07-31T10:55:01.707Z,29.90
2018-07-31T10:57:29.959Z,30.00
2018-07-31T10:59:58.363Z,30.10
2018-07-31T11:02:26.677Z,30.10
2018-07-31T11:04:55.082Z,30.10
2018-07-31T11:07:23.364Z,30.10
2018-07-31T11:09:51.633Z,30.10
2018-07-31T11:12:19.905Z,30.20
2018-07-31T11:14:48.229Z,30.30
2018-07-31T11:17:16.534Z,30.30
2018-07-31T11:19:44.821Z,30.40
2018-07-31T11:22:13.169Z,30.40
2018-07-31T11:24:41.649Z,30.50
2018-07-31T11:27:10.068Z,30.50
2018-07-31T11:29:38.354Z,30.50
2018-07-31T11:32:06.715Z,30.60
2018-07-31T11:34:34.993Z,30.70
2018-07-31T11:37:03.279Z,30.70
2018-07-31T11:39:31.559Z,30.80
2018-07-31T11:41:59.841Z,30.90
2018-07-31T11:44:28.093Z,30.90
2018-07-31T11:46:56.356Z,30.90
2018-07-31T11:49:24.674Z,31.00
2018-07-31T11:51:52.971Z,31.10
2018-07-31T11:54:21.354Z,31.20
2018-07-31T11:56:49.886Z,31.60
2018-07-31T11:59:18.216Z,32.20
2018-07-31T12:01:46.495Z,32.80
2018-07-31T12:04:14.927Z,33.10
2018-07-31T12:06:43.249Z,33.40
2018-07-31T12:09:13.101Z,33.60
2018-07-31T12:11:41.729Z,33.70
2018-07-31T12:14:10.026Z,34.00
2018-07-31T12:16:38.281Z,34.10
2018-07-31T12:19:06.730Z,34.10
2018-07-31T12:21:34.993Z,34.20
2018-07-31T12:24:03.353Z,34.20
2018-07-31T12:26:31.610Z,34.30
2018-07-31T12:28:59.985Z,34.30
2018-07-31T12:31:28.297Z,34.40
2018-07-31T12:33:56.614Z,34.40
2018-07-31T12:36:24.911Z,34.50
2018-07-31T12:38:53.241Z,34.60
2018-07-31T12:41:21.541Z,34.60
2018-07-31T12:43:50.005Z,34.60
2018-07-31T12:46:18.262Z,34.60
2018-07-31T12:48:46.761Z,34.60
2018-07-31T12:51:15.069Z,34.60
2018-07-31T12:53:43.329Z,34.70
2018-07-31T12:56:11.669Z,34.70
2018-07-31T12:58:40.022Z,34.80
2018-07-31T13:01:08.318Z,34.80
2018-07-31T13:03:36.625Z,34.80
2018-07-31T13:06:04.913Z,34.80
2018-07-31T13:08:33.259Z,34.90
2018-07-31T13:11:01.549Z,34.90
2018-07-31T13:13:29.829Z,34.90
2018-07-31T13:15:58.113Z,35.00
2018-07-31T13:18:26.378Z,35.00
2018-07-31T13:20:54.689Z,35.00
2018-07-31T13:23:22.962Z,35.00
2018-07-31T13:25:51.235Z,35.10
2018-07-31T13:28:19.542Z,35.00
2018-07-31T13:33:15.922Z,35.10
2018-07-31T13:35:44.125Z,35.10
2018-07-31T13:38:12.405Z,35.00
2018-07-31T13:40:40.718Z,35.10
2018-07-31T13:43:09.025Z,35.10
2018-07-31T13:45:37.327Z,35.10
2018-07-31T13:48:05.693Z,35.10
2018-07-31T13:50:33.960Z,35.20
2018-07-31T13:53:02.221Z,35.20
2018-07-31T13:55:30.560Z,35.20
2018-07-31T13:57:58.791Z,35.20
2018-07-31T14:00:27.325Z,35.20
2018-07-31T14:02:55.586Z,35.20
2018-07-31T14:05:23.894Z,35.20
2018-07-31T14:07:52.173Z,35.10
2018-07-31T14:10:20.449Z,35.10
2018-07-31T14:12:48.715Z,35.20
2018-07-31T14:15:16.997Z,35.30
2018-07-31T14:17:45.297Z,35.20
2018-07-31T14:20:13.573Z,35.20
2018-07-31T14:22:41.895Z,35.30
2018-07-31T14:25:10.210Z,35.20
2018-07-31T14:27:38.482Z,35.20
2018-07-31T14:32:35.003Z,35.20
2018-07-31T14:35:03.322Z,35.20
2018-07-31T14:37:31.725Z,35.20
2018-07-31T14:42:28.101Z,35.20
2018-07-31T14:44:56.390Z,35.30
2018-07-31T14:47:24.713Z,35.30
2018-07-31T14:49:53.009Z,35.30
2018-07-31T14:54:49.389Z,35.30
2018-07-31T14:57:17.700Z,35.30
2018-07-31T14:59:46.005Z,35.30
2018-07-31T15:02:14.302Z,35.20
2018-07-31T15:04:42.590Z,35.20
2018-07-31T15:07:10.892Z,35.30
2018-07-31T15:09:39.234Z,35.20
2018-07-31T15:12:07.565Z,35.20
2018-07-31T15:14:35.823Z,35.30
2018-07-31T15:17:04.130Z,35.30
2018-07-31T15:19:32.434Z,35.30
2018-07-31T15:22:00.892Z,35.40
2018-07-31T15:24:29.240Z,35.30
2018-07-31T15:26:57.533Z,35.30
2018-07-31T15:29:25.835Z,35.20
2018-07-31T15:31:54.148Z,35.30
2018-07-31T15:34:22.402Z,35.30
2018-07-31T15:36:50.698Z,35.30
2018-07-31T15:39:20.399Z,35.40
2018-07-31T15:44:19.683Z,35.40
2018-07-31T15:46:49.351Z,35.30
2018-07-31T15:49:18.932Z,35.30
2018-07-31T15:51:48.623Z,35.30
2018-07-31T15:54:18.420Z,35.30
2018-07-31T15:56:48.254Z,35.30
2018-07-31T15:59:18.028Z,35.30
2018-07-31T16:01:47.393Z,35.20
2018-07-31T16:04:16.902Z,35.20
2018-07-31T16:06:46.489Z,35.20
2018-07-31T16:09:16.278Z,35.20
2018-07-31T16:11:46.009Z,35.20
2018-07-31T16:16:44.661Z,35.10
2018-07-31T16:19:15.140Z,35.10
2018-07-31T16:21:45.785Z,35.10
2018-07-31T16:24:15.509Z,35.10
2018-07-31T16:26:45.814Z,35.00
2018-07-31T16:29:15.396Z,35.00
2018-07-31T16:31:45.122Z,35.10
2018-07-31T16:34:14.615Z,35.10
2018-07-31T16:36:44.363Z,35.00
2018-07-31T16:39:14.085Z,35.00
2018-07-31T16:41:45.048Z,35.00
2018-07-31T16:46:43.937Z,35.00
2018-07-31T16:49:14.480Z,34.90
2018-07-31T16:51:44.125Z,34.80
2018-07-31T16:54:13.609Z,34.80
2018-07-31T16:56:42.917Z,34.80
2018-07-31T16:59:13.144Z,34.70
2018-07-31T17:01:42.891Z,34.60
2018-07-31T17:04:12.817Z,34.60
2018-07-31T17:06:42.114Z,34.60
2018-07-31T17:09:11.947Z,34.60
2018-07-31T17:11:41.969Z,34.60
2018-07-31T17:14:11.616Z,34.50
2018-07-31T17:16:41.588Z,34.50
2018-07-31T17:19:11.330Z,34.50
2018-07-31T17:21:41.113Z,34.40
2018-07-31T17:24:10.979Z,34.30
2018-07-31T17:26:40.918Z,34.20
2018-07-31T17:29:10.662Z,34.20
2018-07-31T17:31:41.243Z,34.20
2018-07-31T17:34:10.985Z,34.20
2018-07-31T17:36:41.230Z,34.20
2018-07-31T17:39:12.901Z,34.10
2018-07-31T17:41:42.467Z,34.10
2018-07-31T17:44:12.348Z,34.10
2018-07-31T17:46:42.004Z,34.10
2018-07-31T17:49:12.458Z,34.00
2018-07-31T17:51:42.223Z,34.00
2018-07-31T17:54:13.971Z,34.00
2018-07-31T17:56:44.661Z,33.90
2018-07-31T17:59:14.320Z,33.90
2018-07-31T18:01:45.745Z,33.90
2018-07-31T18:04:15.342Z,33.80
2018-07-31T18:06:45.013Z,33.80
2018-07-31T18:09:14.739Z,33.70
2018-07-31T18:11:44.765Z,33.70
2018-07-31T18:14:14.385Z,33.60
2018-07-31T18:16:45.203Z,33.60
2018-07-31T18:19:14.829Z,33.50
2018-07-31T18:21:45.732Z,33.50
2018-07-31T18:24:15.631Z,33.50
2018-07-31T18:26:46.572Z,33.50
2018-07-31T18:29:16.933Z,33.40
2018-07-31T18:31:47.914Z,33.40
2018-07-31T18:34:17.687Z,33.40
2018-07-31T18:36:47.240Z,33.40
2018-07-31T18:39:18.068Z,33.10
2018-07-31T18:41:47.745Z,33.00
2018-07-31T18:44:18.220Z,32.80
2018-07-31T18:46:48.022Z,32.80
2018-07-31T18:49:17.634Z,32.90
2018-07-31T18:51:47.303Z,32.80
2018-07-31T18:54:17.127Z,32.80
2018-07-31T18:56:46.865Z,32.80
2018-07-31T18:59:16.840Z,32.80
2018-07-31T19:01:47.045Z,32.80
2018-07-31T19:04:17.117Z,32.80
2018-07-31T19:06:46.918Z,32.50
2018-07-31T19:09:17.104Z,32.40
2018-07-31T19:11:48.023Z,32.30
2018-07-31T19:14:17.868Z,32.00
2018-07-31T19:16:48.277Z,31.80
2018-07-31T19:19:18.238Z,31.70
2018-07-31T19:21:48.048Z,31.50
2018-07-31T19:24:17.803Z,31.50
2018-07-31T19:26:47.526Z,31.50
2018-07-31T19:29:17.075Z,31.50
2018-07-31T19:31:46.788Z,31.50
2018-07-31T19:34:17.517Z,31.40
2018-07-31T19:36:47.226Z,31.10
2018-07-31T19:39:16.939Z,31.00
2018-07-31T19:41:46.688Z,30.90
2018-07-31T19:44:17.052Z,31.10
2018-07-31T19:46:46.779Z,31.10
2018-07-31T19:49:16.580Z,31.10
2018-07-31T19:51:46.903Z,31.10
2018-07-31T19:54:16.888Z,31.20
2018-07-31T19:56:46.628Z,31.30
2018-07-31T19:59:16.322Z,31.40
2018-07-31T20:01:46.166Z,31.40
2018-07-31T20:04:15.988Z,31.30
2018-07-31T20:06:46.648Z,31.30
2018-07-31T20:09:21.471Z,31.30
2018-07-31T20:11:53.500Z,31.30
2018-07-31T20:14:23.720Z,31.30
2018-07-31T20:16:53.837Z,31.40
2018-07-31T20:19:23.939Z,31.50
2018-07-31T20:24:22.816Z,31.60
2018-07-31T20:26:52.796Z,31.60
2018-07-31T20:29:22.528Z,31.70
2018-07-31T20:31:52.127Z,31.70
2018-07-31T20:34:22.629Z,31.70
2018-07-31T20:36:51.845Z,31.80
2018-07-31T20:39:20.858Z,31.80
2018-07-31T20:41:50.614Z,31.70
2018-07-31T20:44:20.323Z,31.80
2018-07-31T20:46:50.240Z,31.70
2018-07-31T20:49:21.462Z,31.80
2018-07-31T20:51:51.398Z,31.70
2018-07-31T20:54:21.628Z,31.80
2018-07-31T20:56:51.737Z,31.70
2018-07-31T20:59:22.182Z,31.70
2018-07-31T21:01:51.932Z,31.70
2018-07-31T21:04:21.477Z,31.70
2018-07-31T21:06:52.156Z,31.70
2018-07-31T21:09:22.569Z,31.70
2018-07-31T21:11:52.603Z,31.70
2018-07-31T21:14:22.525Z,31.70
2018-07-31T21:16:52.588Z,31.60
2018-07-31T21:19:22.436Z,31.60
2018-07-31T21:21:52.176Z,31.60
2018-07-31T21:24:21.963Z,31.60
2018-07-31T21:26:51.772Z,31.60
2018-07-31T21:29:21.483Z,31.60
2018-07-31T21:31:51.297Z,31.60
2018-07-31T21:34:21.022Z,31.60
2018-07-31T21:36:50.916Z,31.50
2018-07-31T21:39:20.656Z,31.50
2018-07-31T21:41:51.481Z,31.50
2018-07-31T21:44:21.271Z,31.50
2018-07-31T21:46:51.086Z,31.50
2018-07-31T21:49:20.937Z,31.50
2018-07-31T21:51:50.817Z,31.40
2018-07-31T21:54:20.730Z,31.40
2018-07-31T21:56:50.707Z,31.40
2018-07-31T21:59:20.500Z,31.40
2018-07-31T22:01:50.313Z,31.30
2018-07-31T22:04:21.010Z,31.30
2018-07-31T22:06:50.893Z,31.30
2018-07-31T22:09:27.674Z,31.30
2018-07-31T22:11:57.518Z,31.20
2018-07-31T22:14:27.390Z,31.20
2018-07-31T22:16:57.330Z,31.20
2018-07-31T22:19:27.202Z,31.20
2018-07-31T22:24:26.271Z,31.10
2018-07-31T22:26:55.949Z,31.10
2018-07-31T22:29:26.168Z,31.10
2018-07-31T22:31:56.828Z,31.00
2018-07-31T22:34:27.499Z,31.00
2018-07-31T22:36:57.489Z,31.00
2018-07-31T22:39:27.460Z,31.00
2018-07-31T22:41:58.001Z,30.90
2018-07-31T22:46:56.763Z,30.80
2018-07-31T22:49:26.402Z,30.80
2018-07-31T22:51:55.827Z,30.80
2018-07-31T22:56:53.427Z,30.70
2018-07-31T22:59:23.246Z,30.70
2018-07-31T23:01:53.192Z,30.70
2018-07-31T23:04:23.198Z,30.60
2018-07-31T23:06:52.943Z,30.60
2018-07-31T23:09:22.023Z,30.60
2018-07-31T23:11:52.595Z,30.60
2018-07-31T23:14:22.202Z,30.50
2018-07-31T23:16:51.073Z,30.40
2018-07-31T23:19:21.016Z,30.40
2018-07-31T23:21:50.668Z,30.40
2018-07-31T23:24:19.469Z,30.40
2018-07-31T23:26:49.177Z,30.30
2018-07-31T23:29:18.913Z,30.30
2018-07-31T23:31:47.934Z,30.30
2018-07-31T23:34:17.504Z,30.30
2018-07-31T23:36:47.470Z,30.20
2018-07-31T23:39:16.470Z,30.20
2018-07-31T23:41:45.888Z,30.20
2018-07-31T23:44:15.666Z,30.10
2018-07-31T23:46:44.611Z,30.10
2018-07-31T23:49:14.273Z,30.10
2018-07-31T23:51:42.551Z,30.10
2018-07-31T23:54:11.048Z,30.10
2018-07-31T23:56:39.711Z,30.00
2018-07-31T23:59:08.034Z,30.00
